createdAt,value
2022-07-29T00:01:20.371Z,15.15
2022-07-29T00:03:49.005Z,15.15
2022-07-29T00:06:17.895Z,15.17
2022-07-29T00:08:49.012Z,15.15
2022-07-29T00:11:20.154Z,15.11
2022-07-29T00:13:51.202Z,15.04
2022-07-29T00:16:19.411Z,15.05
2022-07-29T00:18:47.510Z,15.05
2022-07-29T00:21:15.588Z,15.02
2022-07-29T00:23:43.577Z,14.98
2022-07-29T00:26:11.747Z,14.93
2022-07-29T00:28:39.764Z,14.87
2022-07-29T00:31:09.212Z,14.87
2022-07-29T00:33:37.495Z,14.84
2022-07-29T00:36:05.651Z,14.81
2022-07-29T00:38:33.706Z,14.79
2022-07-29T00:41:01.692Z,14.81
2022-07-29T00:43:29.617Z,14.73
2022-07-29T00:46:00.049Z,14.76
2022-07-29T00:48:28.299Z,14.72
2022-07-29T00:50:58.518Z,14.69
2022-07-29T00:53:26.778Z,14.65
2022-07-29T00:55:56.327Z,14.63
2022-07-29T00:58:24.873Z,14.62
2022-07-29T01:00:55.779Z,14.60
2022-07-29T01:03:23.947Z,14.55
2022-07-29T01:05:53.349Z,14.55
2022-07-29T01:08:22.569Z,14.53
2022-07-29T01:10:51.864Z,14.55
2022-07-29T01:13:20.250Z,14.55
2022-07-29T01:15:54.074Z,14.53
2022-07-29T01:18:47.888Z,14.47
2022-07-29T01:21:31.725Z,14.45
2022-07-29T01:24:27.574Z,14.46
2022-07-29T01:27:24.951Z,14.43
2022-07-29T01:30:03.840Z,14.42
2022-07-29T01:32:37.965Z,14.39
2022-07-29T01:35:33.105Z,14.40
2022-07-29T01:38:21.427Z,14.38
2022-07-29T01:40:56.464Z,14.38
2022-07-29T01:43:45.157Z,14.38
2022-07-29T01:46:27.806Z,14.39
2022-07-29T01:49:03.152Z,14.36
2022-07-29T01:51:55.932Z,14.38
2022-07-29T01:54:38.731Z,14.35
2022-07-29T01:57:14.795Z,14.36
2022-07-29T01:59:44.504Z,14.33
2022-07-29T02:02:15.016Z,14.33
2022-07-29T02:04:45.442Z,14.30
2022-07-29T02:07:17.824Z,14.33
2022-07-29T02:09:47.738Z,14.35
2022-07-29T02:12:21.980Z,14.35
2022-07-29T02:14:54.042Z,14.39
2022-07-29T02:17:43.879Z,14.40
2022-07-29T02:20:13.503Z,14.40
2022-07-29T02:22:44.147Z,14.42
2022-07-29T02:25:14.026Z,14.45
2022-07-29T02:27:44.082Z,14.49
2022-07-29T02:30:13.688Z,14.50
2022-07-29T02:32:44.215Z,14.46
2022-07-29T02:35:17.452Z,14.47
2022-07-29T02:38:07.034Z,14.50
2022-07-29T02:40:38.743Z,14.52
2022-07-29T02:43:08.988Z,14.55
2022-07-29T02:45:38.389Z,14.56
2022-07-29T02:48:16.442Z,14.57
2022-07-29T02:51:00.714Z,14.57
2022-07-29T02:53:31.066Z,14.60
2022-07-29T02:56:07.513Z,14.63
2022-07-29T02:58:41.618Z,14.59
2022-07-29T03:01:26.234Z,14.59
2022-07-29T03:03:56.030Z,14.62
2022-07-29T03:06:28.183Z,14.59
2022-07-29T03:09:13.054Z,14.57
2022-07-29T03:11:50.075Z,14.59
2022-07-29T03:14:21.402Z,14.55
2022-07-29T03:16:50.472Z,14.53
2022-07-29T03:19:21.050Z,14.53
2022-07-29T03:21:49.645Z,14.55
2022-07-29T03:24:27.644Z,14.57
2022-07-29T03:26:57.502Z,14.52
2022-07-29T03:29:33.230Z,14.50
2022-07-29T03:32:07.933Z,14.50
2022-07-29T03:34:38.090Z,14.49
2022-07-29T03:37:08.781Z,14.50
2022-07-29T03:39:42.437Z,14.49
2022-07-29T03:42:13.618Z,14.50
2022-07-29T03:44:45.143Z,14.49
2022-07-29T03:47:15.862Z,14.47
2022-07-29T03:49:45.760Z,14.46
2022-07-29T03:52:14.571Z,14.46
2022-07-29T03:54:42.701Z,14.47
2022-07-29T03:57:12.693Z,14.47
2022-07-29T03:59:41.681Z,14.46
2022-07-29T04:02:12.257Z,14.49
2022-07-29T04:04:40.445Z,14.49
2022-07-29T04:07:12.398Z,14.46
2022-07-29T04:09:40.534Z,14.46
2022-07-29T04:12:08.701Z,14.47
2022-07-29T04:14:37.238Z,14.42
2022-07-29T04:17:06.027Z,14.35
2022-07-29T04:19:37.321Z,14.33
2022-07-29T04:22:05.614Z,14.29
2022-07-29T04:24:33.746Z,14.26
2022-07-29T04:27:01.500Z,14.19
2022-07-29T04:29:29.719Z,14.17
2022-07-29T04:31:57.532Z,14.15
2022-07-29T04:34:27.949Z,14.08
2022-07-29T04:36:56.967Z,14.05
2022-07-29T04:39:25.760Z,14.07
2022-07-29T04:41:58.003Z,14.07
2022-07-29T04:44:30.526Z,13.98
2022-07-29T04:46:58.982Z,13.90
2022-07-29T04:49:27.483Z,13.85
2022-07-29T04:51:55.600Z,13.83
2022-07-29T04:54:23.685Z,13.81
2022-07-29T04:56:52.939Z,13.80
2022-07-29T04:59:21.777Z,13.81
2022-07-29T05:01:51.185Z,13.83
2022-07-29T05:04:20.305Z,13.87
2022-07-29T05:06:48.704Z,13.87
2022-07-29T05:09:16.547Z,13.87
2022-07-29T05:11:48.017Z,13.87
2022-07-29T05:14:16.410Z,13.88
2022-07-29T05:16:44.790Z,13.93
2022-07-29T05:19:14.569Z,13.91
2022-07-29T05:21:43.007Z,13.87
2022-07-29T05:24:11.251Z,13.88
2022-07-29T05:26:39.636Z,13.84
2022-07-29T05:29:08.114Z,13.85
2022-07-29T05:31:56.208Z,13.87
2022-07-29T05:34:24.855Z,13.90
2022-07-29T05:36:52.914Z,14.00
2022-07-29T05:39:21.422Z,14.04
2022-07-29T05:41:51.984Z,14.07
2022-07-29T05:44:20.394Z,14.10
2022-07-29T05:46:53.422Z,14.17
2022-07-29T05:49:27.025Z,14.15
2022-07-29T05:51:55.546Z,14.14
2022-07-29T05:54:26.715Z,14.18
2022-07-29T05:56:54.926Z,14.19
2022-07-29T05:59:27.042Z,14.29
2022-07-29T06:01:58.677Z,14.40
2022-07-29T06:04:27.495Z,14.46
2022-07-29T06:06:56.603Z,14.57
2022-07-29T06:09:25.000Z,14.66
2022-07-29T06:11:53.687Z,14.63
2022-07-29T06:14:24.580Z,14.65
2022-07-29T06:16:55.478Z,14.69
2022-07-29T06:19:23.431Z,14.74
2022-07-29T06:21:52.013Z,14.72
2022-07-29T06:24:20.387Z,14.80
2022-07-29T06:26:48.960Z,14.90
2022-07-29T06:29:19.677Z,14.91
2022-07-29T06:31:47.751Z,14.79
2022-07-29T06:34:16.624Z,14.81
2022-07-29T06:36:46.145Z,14.85
2022-07-29T06:39:14.448Z,15.05
2022-07-29T06:41:42.611Z,15.19
2022-07-29T06:44:11.535Z,15.27
2022-07-29T06:46:39.612Z,15.36
2022-07-29T06:49:07.888Z,15.31
2022-07-29T06:51:37.071Z,15.38
2022-07-29T06:54:06.650Z,15.42
2022-07-29T06:56:40.296Z,15.43
2022-07-29T06:59:10.305Z,15.46
2022-07-29T07:01:40.382Z,15.50
2022-07-29T07:04:12.420Z,15.43
2022-07-29T07:06:40.786Z,15.47
2022-07-29T07:09:09.099Z,15.53
2022-07-29T07:11:37.277Z,15.65
2022-07-29T07:14:05.716Z,15.66
2022-07-29T07:16:35.883Z,15.65
2022-07-29T07:19:04.143Z,15.71
2022-07-29T07:21:33.777Z,15.73
2022-07-29T07:24:02.065Z,15.79
2022-07-29T07:26:30.521Z,16.04
2022-07-29T07:29:01.403Z,15.91
2022-07-29T07:31:30.251Z,16.11
2022-07-29T07:34:01.720Z,16.32
2022-07-29T07:36:30.094Z,16.44
2022-07-29T07:38:59.157Z,16.85
2022-07-29T07:41:28.170Z,17.03
2022-07-29T07:44:04.105Z,17.00
2022-07-29T07:46:32.688Z,16.95
2022-07-29T07:49:01.190Z,16.90
2022-07-29T07:51:29.972Z,16.94
2022-07-29T07:54:01.930Z,16.99
2022-07-29T07:56:35.129Z,16.81
2022-07-29T07:59:06.080Z,16.79
2022-07-29T08:01:47.875Z,16.97
2022-07-29T08:04:28.248Z,17.39
2022-07-29T08:06:58.893Z,17.45
2022-07-29T08:09:30.286Z,17.45
2022-07-29T08:12:04.953Z,17.45
2022-07-29T08:14:36.517Z,17.40
2022-07-29T08:17:05.089Z,17.77
2022-07-29T08:19:33.333Z,17.70
2022-07-29T08:22:09.206Z,17.49
2022-07-29T08:24:57.327Z,17.48
2022-07-29T08:27:43.094Z,17.46
2022-07-29T08:30:12.407Z,17.45
2022-07-29T08:32:53.798Z,17.48
2022-07-29T08:35:24.155Z,17.49
2022-07-29T08:37:53.678Z,17.52
2022-07-29T08:40:32.335Z,17.62
2022-07-29T08:43:06.554Z,17.66
2022-07-29T08:45:58.986Z,17.87
2022-07-29T08:48:27.198Z,17.74
2022-07-29T08:50:57.686Z,17.93
2022-07-29T08:53:28.109Z,18.17
2022-07-29T08:56:00.908Z,18.44
2022-07-29T08:58:32.382Z,18.52
2022-07-29T09:01:12.497Z,18.69
2022-07-29T09:03:42.605Z,18.74
2022-07-29T09:06:14.083Z,18.74
2022-07-29T09:08:42.505Z,18.90
2022-07-29T09:11:15.762Z,18.65
2022-07-29T09:13:44.058Z,18.86
2022-07-29T09:16:12.475Z,18.96
2022-07-29T09:18:43.405Z,18.80
2022-07-29T09:21:35.179Z,18.73
2022-07-29T09:24:15.186Z,18.73
2022-07-29T09:26:44.860Z,18.83
2022-07-29T09:29:17.878Z,18.90
2022-07-29T09:31:48.809Z,19.04
2022-07-29T09:34:23.079Z,18.77
2022-07-29T09:36:53.504Z,18.83
2022-07-29T09:39:36.958Z,18.83
2022-07-29T09:42:07.369Z,18.66
2022-07-29T09:44:50.830Z,18.73
2022-07-29T09:47:27.188Z,18.86
2022-07-29T09:50:00.689Z,19.07
2022-07-29T09:52:34.984Z,19.11
2022-07-29T09:55:17.938Z,19.24
2022-07-29T09:57:47.750Z,19.21
2022-07-29T10:00:19.020Z,19.31
2022-07-29T10:02:48.733Z,19.39
2022-07-29T10:05:21.457Z,19.35
2022-07-29T10:07:57.769Z,19.17
2022-07-29T10:10:27.488Z,19.12
2022-07-29T10:13:03.089Z,19.01
2022-07-29T10:15:41.979Z,19.21
2022-07-29T10:18:10.878Z,19.03
2022-07-29T10:20:39.709Z,19.12
2022-07-29T10:23:07.964Z,19.28
2022-07-29T10:25:39.685Z,19.45
2022-07-29T10:28:09.694Z,19.36
2022-07-29T10:30:51.460Z,19.41
2022-07-29T10:33:27.798Z,19.73
2022-07-29T10:36:47.588Z,19.69
2022-07-29T10:39:44.328Z,19.70
2022-07-29T10:42:33.519Z,20.04
2022-07-29T10:45:07.483Z,19.69
2022-07-29T10:47:35.824Z,19.91
2022-07-29T10:50:09.486Z,19.98
2022-07-29T10:52:59.611Z,20.27
2022-07-29T10:55:45.460Z,20.39
2022-07-29T10:58:26.660Z,20.49
2022-07-29T11:00:58.504Z,20.71
2022-07-29T11:03:50.801Z,20.59
2022-07-29T11:06:26.162Z,20.38
2022-07-29T11:09:37.460Z,20.28
2022-07-29T11:12:37.818Z,20.20
2022-07-29T11:15:22.665Z,20.51
2022-07-29T11:17:59.483Z,20.57
2022-07-29T11:20:43.618Z,20.68
2022-07-29T11:23:36.568Z,20.72
2022-07-29T11:26:23.216Z,20.79
2022-07-29T11:29:16.291Z,20.97
2022-07-29T11:31:52.624Z,20.89
2022-07-29T11:34:34.720Z,20.49
2022-07-29T11:37:15.106Z,20.22
2022-07-29T11:40:10.941Z,20.91
2022-07-29T11:42:41.994Z,21.38
2022-07-29T11:45:41.355Z,21.34
2022-07-29T11:48:29.821Z,21.28
2022-07-29T11:50:55.383Z,21.37
2022-07-29T11:53:29.090Z,21.48
2022-07-29T11:56:02.759Z,21.38
2022-07-29T11:58:32.698Z,21.44
2022-07-29T12:01:04.091Z,21.52
2022-07-29T12:03:37.206Z,21.38
2022-07-29T12:06:18.388Z,21.37
2022-07-29T12:08:49.282Z,21.54
2022-07-29T12:11:23.571Z,21.75
2022-07-29T12:13:52.390Z,21.75
2022-07-29T12:16:25.414Z,21.85
2022-07-29T12:19:03.767Z,21.93
2022-07-29T12:21:52.252Z,22.04
2022-07-29T12:24:26.809Z,22.18
2022-07-29T12:27:00.205Z,22.24
2022-07-29T12:29:34.969Z,22.31
2022-07-29T12:32:05.273Z,22.35
2022-07-29T12:34:33.978Z,22.40
2022-07-29T12:37:03.073Z,22.62
2022-07-29T12:39:31.168Z,22.72
2022-07-29T12:42:13.974Z,22.59
2022-07-29T12:44:54.421Z,22.93
2022-07-29T12:47:22.985Z,22.92
2022-07-29T12:49:52.089Z,23.00
2022-07-29T12:52:29.827Z,22.99
2022-07-29T12:54:58.550Z,22.96
2022-07-29T12:57:27.708Z,22.88
2022-07-29T13:00:11.950Z,22.80
2022-07-29T13:02:41.807Z,22.68
2022-07-29T13:05:12.161Z,22.54
2022-07-29T13:08:29.548Z,22.75
2022-07-29T13:10:30.358Z,23.17
2022-07-29T13:13:12.047Z,23.18
2022-07-29T13:15:45.340Z,23.07
2022-07-29T13:18:39.178Z,23.24
2022-07-29T13:21:16.072Z,23.51
2022-07-29T13:23:44.566Z,23.33
2022-07-29T13:26:13.545Z,23.14
2022-07-29T13:28:44.002Z,23.02
2022-07-29T13:31:12.660Z,23.02
2022-07-29T13:33:40.794Z,22.97
2022-07-29T13:36:11.954Z,23.07
2022-07-29T13:38:39.941Z,23.10
2022-07-29T13:41:07.972Z,23.47
2022-07-29T13:43:36.352Z,23.69
2022-07-29T13:46:04.618Z,23.75
2022-07-29T13:48:32.561Z,23.75
2022-07-29T13:51:00.545Z,23.80
2022-07-29T13:53:29.649Z,23.88
2022-07-29T13:55:58.124Z,24.03
2022-07-29T13:58:26.099Z,23.96
2022-07-29T14:00:54.111Z,23.61
2022-07-29T14:03:22.043Z,23.58
2022-07-29T14:05:49.904Z,23.63
2022-07-29T14:08:18.094Z,23.68
2022-07-29T14:10:46.083Z,23.55
2022-07-29T14:13:25.244Z,23.37
2022-07-29T14:15:54.603Z,23.69
2022-07-29T14:18:25.588Z,23.82
2022-07-29T14:20:53.706Z,23.83
2022-07-29T14:23:22.143Z,23.69
2022-07-29T14:25:50.141Z,23.88
2022-07-29T14:28:18.424Z,24.09
2022-07-29T14:30:46.524Z,24.10
2022-07-29T14:33:14.942Z,24.18
2022-07-29T14:35:43.278Z,24.13
2022-07-29T14:38:11.428Z,24.16
2022-07-29T14:40:39.620Z,24.20
2022-07-29T14:43:07.692Z,24.43
2022-07-29T14:45:35.644Z,24.37
2022-07-29T14:48:03.703Z,24.47
2022-07-29T14:50:32.379Z,24.47
2022-07-29T14:53:03.203Z,24.44
2022-07-29T14:55:31.476Z,24.33
2022-07-29T14:58:08.659Z,24.51
2022-07-29T15:00:39.293Z,24.75
2022-07-29T15:03:11.341Z,24.68
2022-07-29T15:05:40.091Z,24.61
2022-07-29T15:08:09.262Z,24.47
2022-07-29T15:10:37.911Z,24.58
2022-07-29T15:13:06.191Z,24.58
2022-07-29T15:15:34.534Z,24.52
2022-07-29T15:18:02.688Z,24.54
2022-07-29T15:20:30.836Z,24.75
2022-07-29T15:22:59.150Z,24.71
2022-07-29T15:25:27.953Z,24.83
2022-07-29T15:28:01.244Z,24.78
2022-07-29T15:30:34.644Z,24.65
2022-07-29T15:33:04.510Z,24.69
2022-07-29T15:35:40.083Z,24.73
2022-07-29T15:38:09.060Z,24.73
2022-07-29T15:40:42.362Z,24.73
2022-07-29T15:43:10.404Z,24.80
2022-07-29T15:45:40.637Z,24.79
2022-07-29T15:48:10.088Z,24.80
2022-07-29T15:50:42.803Z,24.82
2022-07-29T15:53:15.316Z,24.73
2022-07-29T15:55:44.537Z,24.68
2022-07-29T15:58:12.900Z,24.73
2022-07-29T16:00:41.610Z,24.78
2022-07-29T16:03:15.264Z,24.62
2022-07-29T16:05:43.719Z,24.69
2022-07-29T16:08:11.859Z,24.71
2022-07-29T16:10:40.039Z,24.57
2022-07-29T16:13:11.189Z,24.40
2022-07-29T16:16:01.936Z,24.35
2022-07-29T16:18:30.944Z,24.30
2022-07-29T16:20:59.114Z,24.33
2022-07-29T16:23:27.159Z,24.35
2022-07-29T16:26:00.012Z,24.38
2022-07-29T16:28:30.700Z,24.26
2022-07-29T16:30:58.635Z,24.23
2022-07-29T16:33:27.062Z,24.12
2022-07-29T16:35:55.118Z,24.02
2022-07-29T16:38:25.241Z,23.99
2022-07-29T16:40:53.726Z,24.02
2022-07-29T16:43:23.992Z,23.86
2022-07-29T16:45:52.064Z,23.79
2022-07-29T16:48:20.307Z,23.78
2022-07-29T16:50:48.505Z,23.82
2022-07-29T16:53:16.447Z,23.71
2022-07-29T16:55:44.401Z,23.62
2022-07-29T16:58:12.544Z,23.62
2022-07-29T17:00:43.263Z,23.62
2022-07-29T17:03:11.305Z,23.55
2022-07-29T17:05:52.538Z,23.55
2022-07-29T17:08:23.011Z,23.58
2022-07-29T17:10:51.309Z,23.54
2022-07-29T17:13:22.775Z,23.59
2022-07-29T17:15:58.802Z,23.58
2022-07-29T17:18:38.015Z,23.57
2022-07-29T17:21:06.097Z,23.57
2022-07-29T17:23:37.382Z,23.54
2022-07-29T17:26:08.072Z,23.55
2022-07-29T17:28:36.473Z,23.50
2022-07-29T17:31:05.024Z,23.52
2022-07-29T17:33:33.519Z,23.61
2022-07-29T17:36:24.871Z,23.62
2022-07-29T17:39:01.126Z,23.57
2022-07-29T17:41:31.128Z,23.52
2022-07-29T17:43:59.434Z,23.51
2022-07-29T17:46:28.205Z,23.50
2022-07-29T17:48:57.723Z,23.48
2022-07-29T17:51:27.734Z,23.48
2022-07-29T17:53:59.733Z,23.47
2022-07-29T17:56:27.864Z,23.52
2022-07-29T17:58:56.440Z,23.54
2022-07-29T18:01:26.013Z,23.48
2022-07-29T18:03:57.182Z,23.43
2022-07-29T18:06:28.619Z,23.37
2022-07-29T18:08:59.003Z,23.30
2022-07-29T18:11:28.735Z,23.18
2022-07-29T18:14:02.547Z,23.14
2022-07-29T18:16:31.048Z,23.06
2022-07-29T18:19:02.892Z,23.00
2022-07-29T18:21:41.080Z,22.86
2022-07-29T18:24:29.486Z,22.76
2022-07-29T18:26:58.422Z,22.68
2022-07-29T18:29:29.151Z,22.58
2022-07-29T18:31:59.959Z,22.52
2022-07-29T18:34:32.144Z,22.47
2022-07-29T18:37:02.504Z,22.41
2022-07-29T18:39:33.679Z,22.38
2022-07-29T18:42:05.334Z,22.44
2022-07-29T18:44:33.896Z,22.35
2022-07-29T18:47:12.041Z,22.35
2022-07-29T18:49:42.996Z,22.30
2022-07-29T18:52:11.097Z,22.25
2022-07-29T18:54:40.168Z,22.16
2022-07-29T18:57:55.305Z,22.08
2022-07-29T18:59:57.589Z,22.06
2022-07-29T19:02:29.004Z,22.00
2022-07-29T19:04:59.645Z,21.90
2022-07-29T19:07:30.768Z,21.86
2022-07-29T19:09:58.749Z,21.83
2022-07-29T19:12:27.527Z,21.73
2022-07-29T19:14:58.941Z,21.67
2022-07-29T19:17:29.978Z,21.61
2022-07-29T19:19:58.548Z,21.58
2022-07-29T19:22:26.795Z,21.49
2022-07-29T19:24:54.870Z,21.45
2022-07-29T19:27:23.243Z,21.38
2022-07-29T19:29:51.251Z,21.32
2022-07-29T19:32:24.771Z,21.24
2022-07-29T19:35:11.854Z,21.18
2022-07-29T19:37:39.911Z,21.12
2022-07-29T19:40:09.934Z,21.04
2022-07-29T19:42:38.101Z,21.00
2022-07-29T19:45:15.168Z,20.90
2022-07-29T19:47:46.972Z,20.82
2022-07-29T19:50:15.900Z,20.66
2022-07-29T19:52:45.390Z,20.56
2022-07-29T19:55:16.859Z,20.42
2022-07-29T19:57:52.789Z,20.34
2022-07-29T20:00:24.396Z,20.24
2022-07-29T20:02:52.905Z,20.11
2022-07-29T20:05:27.937Z,20.03
2022-07-29T20:07:59.918Z,19.90
2022-07-29T20:10:30.262Z,19.83
2022-07-29T20:13:01.230Z,19.74
2022-07-29T20:15:29.663Z,19.69
2022-07-29T20:17:58.107Z,19.67
2022-07-29T20:20:27.628Z,19.58
2022-07-29T20:22:56.125Z,19.44
2022-07-29T20:25:24.499Z,19.38
2022-07-29T20:27:52.802Z,19.32
2022-07-29T20:30:24.887Z,19.24
2022-07-29T20:32:55.776Z,19.15
2022-07-29T20:35:23.706Z,19.15
2022-07-29T20:37:56.406Z,19.07
2022-07-29T20:40:26.841Z,19.01
2022-07-29T20:43:03.777Z,18.97
2022-07-29T20:45:31.947Z,18.93
2022-07-29T20:48:00.080Z,18.87
2022-07-29T20:50:29.790Z,18.79
2022-07-29T20:52:58.080Z,18.67
2022-07-29T20:55:26.476Z,18.65
2022-07-29T20:57:54.676Z,18.56
2022-07-29T21:00:23.083Z,18.49
2022-07-29T21:02:56.648Z,18.49
2022-07-29T21:05:25.157Z,18.45
2022-07-29T21:08:01.249Z,18.39
2022-07-29T21:10:29.909Z,18.39
2022-07-29T21:12:58.025Z,18.37
2022-07-29T21:15:27.865Z,18.37
2022-07-29T21:18:03.905Z,18.35
2022-07-29T21:20:32.130Z,18.37
2022-07-29T21:23:01.494Z,18.35
2022-07-29T21:25:34.578Z,18.37
2022-07-29T21:28:21.312Z,18.34
2022-07-29T21:30:50.129Z,18.35
2022-07-29T21:33:20.952Z,18.28
2022-07-29T21:38:40.584Z,18.18
2022-07-29T21:41:12.756Z,18.18
2022-07-29T21:43:42.389Z,18.12
2022-07-29T21:46:10.679Z,18.11
2022-07-29T21:48:44.387Z,18.05
2022-07-29T21:51:12.836Z,18.00
2022-07-29T21:53:41.561Z,18.01
2022-07-29T21:56:14.755Z,18.01
2022-07-29T21:58:43.408Z,17.94
2022-07-29T22:01:11.855Z,17.90
2022-07-29T22:03:42.992Z,17.87
2022-07-29T22:06:16.625Z,17.80
2022-07-29T22:08:47.806Z,17.79
2022-07-29T22:11:16.162Z,17.77
2022-07-29T22:13:46.881Z,17.73
2022-07-29T22:16:15.092Z,17.69
2022-07-29T22:18:49.804Z,17.65
2022-07-29T22:21:18.188Z,17.63
2022-07-29T22:23:46.370Z,17.63
2022-07-29T22:26:14.776Z,17.62
2022-07-29T22:28:42.698Z,17.59
2022-07-29T22:31:10.835Z,17.56
2022-07-29T22:33:41.813Z,17.52
2022-07-29T22:36:12.932Z,17.52
2022-07-29T22:38:40.942Z,17.50
2022-07-29T22:41:09.154Z,17.48
2022-07-29T22:43:40.127Z,17.46
2022-07-29T22:46:11.600Z,17.43
2022-07-29T22:48:40.180Z,17.38
2022-07-29T22:51:08.237Z,17.35
2022-07-29T22:53:37.639Z,17.32
2022-07-29T22:56:05.796Z,17.29
2022-07-29T22:58:37.468Z,17.25
2022-07-29T23:01:09.080Z,17.17
2022-07-29T23:03:39.327Z,17.18
2022-07-29T23:06:07.631Z,17.17
2022-07-29T23:08:35.936Z,17.12
2022-07-29T23:11:06.121Z,17.10
2022-07-29T23:13:34.817Z,17.06
2022-07-29T23:16:03.205Z,17.01
2022-07-29T23:18:33.728Z,17.00
2022-07-29T23:21:02.121Z,16.97
2022-07-29T23:23:32.503Z,16.95
2022-07-29T23:26:00.706Z,16.94
2022-07-29T23:28:28.900Z,16.90
2022-07-29T23:30:57.009Z,16.87
2022-07-29T23:33:25.237Z,16.85
2022-07-29T23:35:53.449Z,16.83
2022-07-29T23:38:21.866Z,16.83
2022-07-29T23:40:52.108Z,16.79
2022-07-29T23:43:20.145Z,16.76
2022-07-29T23:45:48.683Z,16.76
2022-07-29T23:48:17.218Z,16.72
2022-07-29T23:50:45.383Z,16.66
2022-07-29T23:53:13.357Z,16.63
2022-07-29T23:55:41.422Z,16.66
2022-07-29T23:58:09.299Z,16.70
